Time;durP1;ratioP1;P1;durP2;ratioP2;P2;SDS_P1;SDS_P2;PMS_P1;PMS_P2;Temp;Humidity;BMP_temperature;BMP_pressure;BME280_temperature;BME280_humidity;BME280_pressure;Samples;Min_cycle;Max_cycle;Signal;HPM_P1;HPM_P2
2023/01/26 00:02:14;;;;;;;18.60;8.68;;;;;;;0.53;100.00;98221.13;4977872;28;20033;-85
2023/01/26 00:04:39;;;;;;;20.63;8.85;;;;;;;0.50;100.00;98199.25;5009741;28;20025;-85
2023/01/26 00:07:05;;;;;;;20.55;8.75;;;;;;;0.59;100.00;98214.91;4997117;28;20481;-84
2023/01/26 00:09:30;;;;;;;22.80;8.85;;;;;;;0.58;100.00;98207.06;4997095;28;20481;-84
2023/01/26 00:11:56;;;;;;;17.52;8.05;;;;;;;0.56;100.00;98207.06;4984649;28;20033;-85
2023/01/26 00:14:21;;;;;;;19.10;8.38;;;;;;;0.63;100.00;98219.28;4977584;28;20033;-84
2023/01/26 00:16:47;;;;;;;20.75;8.10;;;;;;;0.54;100.00;98208.84;4977602;28;20532;-85
2023/01/26 00:19:12;;;;;;;17.58;7.20;;;;;;;0.50;100.00;98204.50;5000447;28;20112;-85
2023/01/26 00:21:38;;;;;;;16.00;7.53;;;;;;;0.64;100.00;98228.91;4977948;28;20060;-85
2023/01/26 00:24:04;;;;;;;15.80;7.53;;;;;;;0.62;100.00;98220.16;5008576;28;20048;-85
2023/01/26 00:26:29;;;;;;;22.15;8.48;;;;;;;0.63;100.00;98221.03;4996960;28;20026;-85
2023/01/26 00:28:55;;;;;;;17.13;7.25;;;;;;;0.65;100.00;98224.53;4994253;28;20149;-84
2023/01/26 00:31:24;;;;;;;16.63;7.50;;;;;;;0.57;100.00;98224.59;5009033;28;20033;-86
2023/01/26 00:33:53;;;;;;;18.42;8.13;;;;;;;0.58;100.00;98231.63;5004993;28;20029;-84
2023/01/26 00:36:26;;;;;;;23.17;8.93;;;;;;;0.61;100.00;98238.59;4988811;28;20521;-87
2023/01/26 00:39:10;;;;;;;27.27;9.18;;;;;;;0.48;100.00;98222.09;4998583;28;20121;-85
2023/01/26 00:42:05;;;;;;;18.70;7.90;;;;;;;0.55;100.00;98237.75;5001160;28;20036;-83
2023/01/26 00:44:31;;;;;;;25.02;8.40;;;;;;;0.41;100.00;98231.81;4994528;28;20040;-85
2023/01/26 00:47:00;;;;;;;25.15;8.90;;;;;;;0.37;100.00;98237.97;5001213;28;20022;-85
2023/01/26 00:49:28;;;;;;;21.70;8.30;;;;;;;0.18;100.00;98232.94;4999267;28;20026;-85
2023/01/26 00:51:54;;;;;;;19.45;8.27;;;;;;;0.28;100.00;98253.84;4997354;28;20460;-84
2023/01/26 00:54:22;;;;;;;21.27;8.40;;;;;;;0.37;100.00;98264.28;4998605;28;20120;-85
2023/01/26 00:56:48;;;;;;;24.65;9.55;;;;;;;0.17;100.00;98246.97;5037004;28;20111;-85
2023/01/26 00:59:16;;;;;;;27.38;10.27;;;;;;;0.27;100.00;98253.88;5017537;28;20481;-86
2023/01/26 01:01:43;;;;;;;23.02;9.80;;;;;;;0.06;100.00;98223.41;5015228;28;20547;-86
2023/01/26 01:04:08;;;;;;;22.85;9.25;;;;;;;-0.04;100.00;98206.88;5034584;28;20037;-87
2023/01/26 01:06:34;;;;;;;22.88;10.15;;;;;;;0.15;100.00;98233.84;5015666;28;20022;-85
2023/01/26 01:09:02;;;;;;;23.23;9.65;;;;;;;0.23;100.00;98237.25;5000617;28;20064;-84
2023/01/26 01:11:31;;;;;;;29.02;10.70;;;;;;;0.22;100.00;98227.63;5017704;28;20025;-85
2023/01/26 01:13:59;;;;;;;25.27;9.50;;;;;;;0.36;100.00;98224.84;5017159;28;20029;-86
2023/01/26 01:16:24;;;;;;;21.08;9.10;;;;;;;0.47;100.00;98231.72;5016936;28;20044;-85
2023/01/26 01:19:27;;;;;;;22.42;9.00;;;;;;;0.41;100.00;98221.28;5034622;28;20052;-86
2023/01/26 01:21:45;;;;;;;20.45;8.85;;;;;;;0.41;100.00;98210.75;5013065;28;20049;-85
2023/01/26 01:24:13;;;;;;;24.75;8.07;;;;;;;0.39;100.00;98207.28;5016559;28;20041;-85
2023/01/26 01:26:39;;;;;;;23.42;9.52;;;;;;;0.48;100.00;98217.69;5017073;28;20030;-86
2023/01/26 01:29:06;;;;;;;26.60;10.90;;;;;;;0.23;100.00;98197.81;5016809;28;20032;-86
2023/01/26 01:31:42;;;;;;;26.63;9.90;;;;;;;0.26;100.00;98204.78;5016671;28;20036;-86
2023/01/26 01:34:07;;;;;;;24.00;9.15;;;;;;;0.27;100.00;98207.41;5000615;28;20021;-84
2023/01/26 01:36:33;;;;;;;24.55;10.85;;;;;;;0.31;100.00;98202.97;5015827;28;20405;-84
2023/01/26 01:38:58;;;;;;;22.48;10.43;;;;;;;0.34;100.00;98213.50;5000095;28;20108;-85
2023/01/26 01:41:24;;;;;;;18.65;8.85;;;;;;;0.26;100.00;98208.28;5015791;28;20436;-86
2023/01/26 01:43:50;;;;;;;20.67;9.73;;;;;;;0.32;100.00;98213.50;5016000;28;20030;-85
2023/01/26 01:46:29;;;;;;;30.05;10.40;;;;;;;0.38;100.00;98213.41;5015377;28;20021;-84
2023/01/26 01:49:19;;;;;;;31.08;10.20;;;;;;;0.59;100.00;98229.84;5015861;28;20029;-85
2023/01/26 01:52:09;;;;;;;28.08;11.18;;;;;;;0.42;100.00;98209.88;5003553;28;20037;-82
2023/01/26 01:54:41;;;;;;;29.10;10.20;;;;;;;0.34;100.00;98197.69;5033379;28;20025;-84
2023/01/26 01:57:14;;;;;;;26.83;9.50;;;;;;;0.42;100.00;98199.34;5015755;28;20040;-86
2023/01/26 01:59:42;;;;;;;27.15;10.30;;;;;;;0.46;100.00;98206.28;5000175;28;20504;-85
2023/01/26 02:02:08;;;;;;;32.83;10.45;;;;;;;0.46;100.00;98214.19;5015901;28;20022;-84
2023/01/26 02:04:33;;;;;;;25.20;10.10;;;;;;;0.33;100.00;98191.56;4999091;28;20025;-85
2023/01/26 02:06:59;;;;;;;23.55;8.90;;;;;;;0.26;100.00;98189.88;4996052;28;20021;-86
2023/01/26 02:12:15;;;;;;;21.60;9.02;;;;;;;0.18;100.00;98201.38;5018666;28;20079;-86
2023/01/26 02:14:41;;;;;;;22.08;9.52;;;;;;;0.19;100.00;98203.09;5015433;28;20075;-85
2023/01/26 02:17:08;;;;;;;33.25;10.63;;;;;;;0.12;100.00;98199.69;4999008;28;20447;-86
2023/01/26 02:19:50;;;;;;;22.83;9.63;;;;;;;0.17;100.00;98195.25;5015267;28;20029;-84
2023/01/26 02:22:26;;;;;;;20.65;8.55;;;;;;;0.15;100.00;98196.16;5015655;28;20025;-87
2023/01/26 02:24:54;;;;;;;20.00;9.35;;;;;;;0.15;100.00;98191.78;5015284;28;20390;-85
2023/01/26 02:27:20;;;;;;;28.10;10.35;;;;;;;0.04;100.00;98185.72;4998678;28;20106;-85
2023/01/26 02:29:45;;;;;;;27.20;11.48;;;;;;;0.01;100.00;98183.13;5014780;28;20544;-84
2023/01/26 02:32:11;;;;;;;28.70;10.23;;;;;;;-0.02;100.00;98173.53;5015358;28;20021;-86
2023/01/26 02:34:37;;;;;;;25.52;10.07;;;;;;;0.13;100.00;98184.75;4998518;28;20036;-85
2023/01/26 02:37:02;;;;;;;24.48;9.93;;;;;;;0.03;100.00;98168.22;4998399;28;20408;-85
2023/01/26 02:39:44;;;;;;;23.27;10.30;;;;;;;0.03;100.00;98173.50;4998569;28;20098;-85
2023/01/26 02:44:54;;;;;;;26.88;10.27;;;;;;;0.37;100.00;98184.50;5017541;28;20053;-86
2023/01/26 02:47:19;;;;;;;21.15;8.82;;;;;;;0.36;100.00;98162.59;4998431;28;20021;-85
2023/01/26 02:49:49;;;;;;;21.50;8.20;;;;;;;0.40;100.00;98151.13;5014440;28;20040;-84
2023/01/26 02:52:25;;;;;;;26.77;9.68;;;;;;;0.47;100.00;98138.75;5015134;28;20053;-84
2023/01/26 02:57:36;;;;;;;17.90;8.52;;;;;;;0.46;100.00;98118.63;5017386;28;20094;-85
2023/01/26 03:00:08;;;;;;;20.75;9.77;;;;;;;0.39;100.00;98115.19;5014381;28;20412;-86
2023/01/26 03:02:34;;;;;;;19.48;8.90;;;;;;;0.38;100.00;98116.06;4998423;28;20029;-86
2023/01/26 03:04:59;;;;;;;19.77;8.77;;;;;;;0.43;100.00;98119.50;4997918;28;20500;-85
2023/01/26 03:07:25;;;;;;;22.70;9.63;;;;;;;0.47;100.00;98117.72;4998438;28;20045;-85
2023/01/26 03:09:50;;;;;;;20.40;8.90;;;;;;;0.43;100.00;98113.41;4998152;28;20030;-85
2023/01/26 03:12:16;;;;;;;28.10;11.05;;;;;;;0.42;100.00;98116.91;4998003;28;20034;-86
2023/01/26 03:14:41;;;;;;;24.58;10.68;;;;;;;0.35;100.00;98116.13;4989936;28;20139;-86
2023/01/26 03:17:07;;;;;;;28.98;11.25;;;;;;;0.23;100.00;98120.66;4989796;28;20112;-86
2023/01/26 03:27:46;;;;;;;25.30;9.77;;;;;;;0.45;100.00;98123.00;5016827;28;20516;-85
2023/01/26 03:30:13;;;;;;;18.77;8.30;;;;;;;0.45;100.00;98125.63;5006249;28;20029;-85
2023/01/26 03:32:39;;;;;;;23.85;8.57;;;;;;;0.41;100.00;98105.50;5013958;28;20041;-85
2023/01/26 03:35:05;;;;;;;18.85;8.93;;;;;;;0.38;100.00;98108.19;4997510;28;20612;-85
2023/01/26 03:37:35;;;;;;;19.85;8.73;;;;;;;0.37;100.00;98111.69;5013979;28;20022;-86
2023/01/26 03:56:32;;;;;;;30.05;10.75;;;;;;;0.12;100.00;98091.88;5016560;28;20040;-86
2023/01/26 03:59:11;;;;;;;25.45;9.70;;;;;;;0.09;100.00;98089.28;5013807;28;20049;-85
2023/01/26 04:09:55;;;;;;;29.33;11.30;;;;;;;0.17;100.00;98091.78;5016113;28;20095;-83
2023/01/26 04:12:21;;;;;;;27.17;12.00;;;;;;;0.20;100.00;98100.53;5013981;28;20025;-85
2023/01/26 04:23:16;;;;;;;39.03;14.38;;;;;;;0.28;100.00;98097.78;5013760;28;20107;-85
2023/01/26 04:25:42;;;;;;;34.85;13.95;;;;;;;0.21;100.00;98083.88;5031381;28;20029;-85
2023/01/26 04:28:07;;;;;;;35.05;11.88;;;;;;;0.13;100.00;98079.56;5030969;28;20155;-85
2023/01/26 04:30:33;;;;;;;25.33;10.88;;;;;;;0.18;100.00;98086.53;4997309;28;20385;-86
2023/01/26 04:32:58;;;;;;;30.17;11.25;;;;;;;0.03;100.00;98055.19;5013599;28;20029;-85
2023/01/26 04:35:24;;;;;;;24.67;9.98;;;;;;;0.15;100.00;98070.78;4996601;28;20032;-84
2023/01/26 04:37:49;;;;;;;27.23;11.02;;;;;;;0.11;100.00;98055.94;4996915;28;20539;-85
2023/01/26 04:40:15;;;;;;;31.15;12.25;;;;;;;0.13;100.00;98056.78;5013066;28;20029;-85
2023/01/26 04:42:40;;;;;;;39.78;14.00;;;;;;;0.17;100.00;98047.97;4996855;28;20477;-85
2023/01/26 04:45:07;;;;;;;27.25;11.25;;;;;;;0.11;100.00;98037.53;5013094;28;20108;-85
2023/01/26 04:47:33;;;;;;;33.10;12.57;;;;;;;0.19;100.00;98050.56;4997082;28;20088;-85
2023/01/26 04:49:58;;;;;;;30.45;12.20;;;;;;;0.26;100.00;98054.84;5013044;28;20056;-85
2023/01/26 04:52:24;;;;;;;37.25;13.45;;;;;;;0.28;100.00;98059.19;5013053;28;20034;-85
2023/01/26 04:54:49;;;;;;;27.77;11.68;;;;;;;0.32;100.00;98055.66;5012792;28;20117;-85
2023/01/26 04:57:15;;;;;;;38.83;15.07;;;;;;;0.21;100.00;98051.44;5030390;28;20030;-86
2023/01/26 04:59:41;;;;;;;30.40;13.55;;;;;;;0.14;100.00;98042.75;4996677;28;20416;-86
2023/01/26 05:02:06;;;;;;;27.20;12.93;;;;;;;0.22;100.00;98042.63;4996040;28;20085;-86
2023/01/26 05:04:32;;;;;;;29.15;11.30;;;;;;;0.13;100.00;98048.88;4996812;28;20029;-85
2023/01/26 05:06:57;;;;;;;30.75;12.52;;;;;;;0.27;100.00;98061.88;4996557;28;20423;-85
2023/01/26 05:09:23;;;;;;;25.73;10.48;;;;;;;0.15;100.00;98036.59;4996421;28;20386;-84
2023/01/26 05:11:48;;;;;;;35.63;12.85;;;;;;;0.02;100.00;98023.63;5012880;28;20048;-85
2023/01/26 05:14:14;;;;;;;28.40;11.20;;;;;;;0.07;100.00;98030.56;5012004;28;20389;-85
2023/01/26 05:16:40;;;;;;;29.40;12.25;;;;;;;0.27;100.00;98054.84;5013090;28;20072;-84
2023/01/26 05:19:05;;;;;;;33.70;11.50;;;;;;;0.23;100.00;98050.50;4997675;28;20053;-84
2023/01/26 05:21:31;;;;;;;51.85;18.33;;;;;;;0.32;100.00;98060.91;5016754;28;20059;-84
2023/01/26 05:23:57;;;;;;;34.92;13.88;;;;;;;0.19;100.00;98055.81;5016138;28;20041;-85
2023/01/26 05:26:22;;;;;;;35.00;14.07;;;;;;;0.14;100.00;98034.84;5016600;28;20401;-85
2023/01/26 05:28:48;;;;;;;34.75;14.85;;;;;;;0.13;100.00;98033.09;5034155;28;20073;-86
2023/01/26 05:31:13;;;;;;;34.25;13.40;;;;;;;0.08;100.00;98008.66;5000154;28;20037;-86
2023/01/26 05:33:39;;;;;;;41.15;15.60;;;;;;;0.15;100.00;98022.59;5016530;28;20039;-85
2023/01/26 05:36:06;;;;;;;34.88;15.32;;;;;;;0.16;100.00;98025.19;5033677;28;20036;-85
2023/01/26 05:38:32;;;;;;;37.63;15.15;;;;;;;0.22;100.00;98030.34;5016034;28;20033;-85
2023/01/26 05:40:58;;;;;;;31.02;14.25;;;;;;;0.27;100.00;98033.81;5015796;28;20034;-84
2023/01/26 05:43:24;;;;;;;36.90;14.85;;;;;;;0.20;100.00;98026.00;4999704;28;20140;-84
2023/01/26 05:45:50;;;;;;;39.17;14.57;;;;;;;0.30;100.00;98035.53;4999369;28;20489;-85
2023/01/26 05:48:16;;;;;;;36.63;15.30;;;;;;;0.33;100.00;98028.47;5018090;28;20029;-85
2023/01/26 05:50:42;;;;;;;38.35;15.98;;;;;;;0.44;100.00;98037.06;5016054;28;20044;-87
2023/01/26 05:53:07;;;;;;;38.95;15.38;;;;;;;0.45;100.00;98030.03;4999007;28;20487;-86
2023/01/26 05:55:33;;;;;;;33.72;15.00;;;;;;;0.65;100.00;98042.91;4999329;28;20496;-86
2023/01/26 05:57:58;;;;;;;33.15;15.32;;;;;;;0.55;100.00;98018.50;5015618;28;20037;-84
2023/01/26 06:00:24;;;;;;;39.72;14.23;;;;;;;0.54;100.00;98014.13;5015775;28;20113;-86
2023/01/26 06:02:49;;;;;;;36.97;15.43;;;;;;;0.48;100.00;97996.66;5015901;28;20132;-86
2023/01/26 06:05:15;;;;;;;33.55;15.25;;;;;;;0.57;100.00;98005.31;4999165;28;20485;-84
2023/01/26 06:07:40;;;;;;;32.60;14.20;;;;;;;0.62;100.00;97998.19;4999964;28;20022;-89
2023/01/26 06:10:07;;;;;;;30.85;14.70;;;;;;;0.63;100.00;98002.56;5016214;28;20049;-83
2023/01/26 06:12:34;;;;;;;32.60;13.65;;;;;;;0.49;100.00;97979.97;4999177;28;20108;-86
2023/01/26 06:15:04;;;;;;;36.78;15.15;;;;;;;0.37;100.00;97977.53;5015891;28;20056;-72
2023/01/26 06:17:29;;;;;;;35.80;16.17;;;;;;;0.44;100.00;97987.06;4999480;28;20021;-88
2023/01/26 06:19:55;;;;;;;34.88;14.05;;;;;;;0.23;100.00;97973.38;4999508;28;20040;-90
2023/01/26 06:22:21;;;;;;;33.38;13.13;;;;;;;0.18;100.00;97975.22;5001917;28;20044;-85
2023/01/26 06:24:46;;;;;;;29.25;12.32;;;;;;;0.08;100.00;97968.31;5000755;28;20103;-89
2023/01/26 06:27:17;;;;;;;34.53;14.88;;;;;;;0.27;100.00;97994.34;5016617;28;20029;-88
2023/01/26 06:29:43;;;;;;;29.33;12.80;;;;;;;0.31;100.00;98003.03;5019769;28;20029;-90
2023/01/26 06:32:10;;;;;;;37.53;17.20;;;;;;;0.42;100.00;98002.03;5016617;28;20037;-73
2023/01/26 06:34:36;;;;;;;56.60;23.77;;;;;;;0.49;100.00;98002.81;5014975;28;20028;-74
2023/01/26 06:37:01;;;;;;;49.95;17.25;;;;;;;0.54;100.00;98006.22;5032979;28;20030;-74
2023/01/26 06:39:27;;;;;;;33.75;13.25;;;;;;;0.60;100.00;97992.09;5015012;28;20025;-73
2023/01/26 06:41:52;;;;;;;26.60;11.20;;;;;;;0.42;100.00;97980.97;5015426;28;20094;-73
2023/01/26 06:44:18;;;;;;;33.20;15.38;;;;;;;0.10;100.00;97950.75;5014998;28;20504;-73
2023/01/26 06:46:46;;;;;;;43.83;16.27;;;;;;;0.19;100.00;97962.00;5015275;28;20172;-95
2023/01/26 06:49:15;;;;;;;43.00;17.50;;;;;;;0.19;100.00;97975.16;4997487;28;20025;-87
2023/01/26 06:51:47;;;;;;;47.33;21.13;;;;;;;0.27;100.00;97986.47;4997152;28;20053;-86
2023/01/26 06:54:13;;;;;;;37.67;15.23;;;;;;;0.20;100.00;97978.66;5030624;28;20064;-84
2023/01/26 06:56:39;;;;;;;47.50;19.60;;;;;;;0.36;100.00;97996.84;5012533;28;20029;-82
2023/01/26 06:59:05;;;;;;;36.88;15.35;;;;;;;0.31;100.00;97988.13;4995929;28;20033;-72
2023/01/26 07:01:35;;;;;;;38.50;16.08;;;;;;;0.37;100.00;97984.56;5030511;28;20021;-73
2023/01/26 07:04:01;;;;;;;39.67;17.20;;;;;;;0.45;100.00;97990.56;5012784;28;20079;-83
2023/01/26 07:06:27;;;;;;;50.92;23.08;;;;;;;0.56;100.00;97986.00;4995641;28;20056;-83
2023/01/26 07:08:52;;;;;;;31.05;14.65;;;;;;;0.61;100.00;97984.19;5012430;28;20424;-83
2023/01/26 07:11:19;;;;;;;59.95;25.58;;;;;;;0.75;100.00;97984.81;5012382;28;20029;-85
2023/01/26 07:13:44;;;;;;;32.47;15.85;;;;;;;0.69;100.00;97969.13;5013358;28;20479;-84
2023/01/26 07:16:12;;;;;;;35.13;16.35;;;;;;;0.69;100.00;97973.53;5012649;28;20064;-74
2023/01/26 07:18:37;;;;;;;43.88;20.30;;;;;;;0.76;100.00;97967.28;5013794;28;20025;-84
2023/01/26 07:21:05;;;;;;;46.65;18.83;;;;;;;0.84;100.00;97962.75;5013232;28;20086;-83
2023/01/26 07:23:30;;;;;;;73.78;31.45;;;;;;;0.83;100.00;97955.75;4994961;28;20029;-84
2023/01/26 07:25:56;;;;;;;32.40;13.38;;;;;;;0.95;100.00;97959.03;5011300;28;20033;-84
2023/01/26 07:28:22;;;;;;;27.27;11.95;;;;;;;1.04;100.00;97958.88;5011752;28;20064;-83
2023/01/26 07:30:48;;;;;;;28.83;13.05;;;;;;;1.12;100.00;97947.31;4995193;28;20035;-83
2023/01/26 07:33:14;;;;;;;45.33;19.80;;;;;;;1.15;100.00;97931.47;5011708;28;20037;-86
2023/01/26 07:35:39;;;;;;;31.20;12.88;;;;;;;1.14;100.00;97914.78;4994645;28;20485;-85
2023/01/26 07:38:05;;;;;;;27.38;12.05;;;;;;;1.03;100.00;97907.09;5011023;28;20033;-85
2023/01/26 07:40:31;;;;;;;33.03;14.02;;;;;;;1.23;100.00;97916.41;4994910;28;20037;-82
2023/01/26 07:42:58;;;;;;;32.45;13.50;;;;;;;1.39;100.00;97921.31;4994116;28;20460;-84
2023/01/26 07:45:24;;;;;;;27.70;11.85;;;;;;;1.32;100.00;97906.56;5011516;28;20030;-85
2023/01/26 07:47:49;;;;;;;31.58;12.90;;;;;;;1.42;100.00;97889.63;5011229;28;20029;-84
2023/01/26 07:50:15;;;;;;;26.25;11.68;;;;;;;1.45;100.00;97871.13;5011298;28;20026;-85
2023/01/26 07:52:42;;;;;;;34.25;16.35;;;;;;;1.34;100.00;97845.91;5011056;28;20080;-84
2023/01/26 07:55:08;;;;;;;31.48;14.35;;;;;;;1.31;100.00;97838.94;4995120;28;20030;-86
2023/01/26 07:57:33;;;;;;;26.63;12.95;;;;;;;1.44;100.00;97843.06;5011488;28;20037;-84
2023/01/26 07:59:59;;;;;;;27.45;10.70;;;;;;;1.37;100.00;97840.56;4991665;28;20026;-86
2023/01/26 08:02:24;;;;;;;30.63;12.90;;;;;;;1.14;100.00;97830.50;5010649;28;20057;-85
2023/01/26 08:04:50;;;;;;;26.95;10.13;;;;;;;1.30;100.00;97847.72;5011227;28;20038;-86
2023/01/26 08:07:15;;;;;;;23.77;12.05;;;;;;;1.22;100.00;97839.13;5011307;28;20042;-85
2023/01/26 08:09:41;;;;;;;28.40;13.90;;;;;;;1.37;100.00;97853.75;4994760;28;20029;-84
2023/01/26 08:12:06;;;;;;;27.23;12.35;;;;;;;1.37;100.00;97859.00;5010990;28;20029;-85
2023/01/26 08:14:32;;;;;;;28.67;12.18;;;;;;;1.25;100.00;97849.59;4994841;28;20022;-85
2023/01/26 08:16:58;;;;;;;33.20;14.98;;;;;;;1.32;100.00;97855.63;4994137;28;20036;-86
2023/01/26 08:19:23;;;;;;;32.38;15.27;;;;;;;1.48;100.00;97863.16;4994307;28;20095;-85
2023/01/26 08:21:49;;;;;;;37.55;16.40;;;;;;;1.72;100.00;97867.06;4994205;28;20034;-86
2023/01/26 08:24:14;;;;;;;27.33;10.98;;;;;;;1.64;100.00;97858.44;5010835;28;20074;-85
2023/01/26 08:26:40;;;;;;;25.35;11.27;;;;;;;1.49;100.00;97840.31;4994477;28;20401;-84
2023/01/26 08:29:06;;;;;;;18.40;8.68;;;;;;;1.25;100.00;97819.75;4994283;28;20030;-85
2023/01/26 08:31:32;;;;;;;21.35;10.40;;;;;;;1.14;100.00;97817.31;5010547;28;20111;-85
2023/01/26 08:33:58;;;;;;;30.42;11.82;;;;;;;1.36;100.00;97836.19;4994005;28;20034;-84
2023/01/26 08:36:24;;;;;;;29.83;13.00;;;;;;;1.61;100.00;97842.69;5010234;28;20025;-83
2023/01/26 08:38:50;;;;;;;25.92;12.38;;;;;;;1.88;100.00;97857.00;5010887;28;20029;-84
2023/01/26 08:41:16;;;;;;;25.58;12.05;;;;;;;1.85;100.00;97828.06;5010752;28;20108;-84
2023/01/26 08:43:42;;;;;;;29.88;12.82;;;;;;;1.75;100.00;97805.47;4994352;28;20115;-85
2023/01/26 08:46:08;;;;;;;23.35;10.85;;;;;;;1.88;100.00;97813.03;4993888;28;20492;-85
2023/01/26 08:48:33;;;;;;;30.40;11.80;;;;;;;1.76;100.00;97812.47;4994067;28;20112;-84
2023/01/26 08:51:01;;;;;;;23.92;11.30;;;;;;;1.84;100.00;97815.81;5010656;28;20069;-86
2023/01/26 08:53:30;;;;;;;22.55;9.35;;;;;;;1.89;100.00;97816.56;4993259;28;20204;-75
2023/01/26 08:55:55;;;;;;;19.63;9.38;;;;;;;1.89;100.00;97793.69;5013971;28;20460;-82
2023/01/26 08:58:21;;;;;;;18.38;8.55;;;;;;;1.80;100.00;97791.28;4997252;28;20033;-85
2023/01/26 09:00:46;;;;;;;35.78;15.20;;;;;;;1.62;100.00;97786.44;5000612;28;20039;-85
2023/01/26 09:03:12;;;;;;;21.00;9.93;;;;;;;1.41;100.00;97779.88;4999678;28;20029;-85
2023/01/26 09:05:38;;;;;;;25.80;12.30;;;;;;;1.58;100.00;97809.34;5013632;28;20033;-84
2023/01/26 09:08:06;;;;;;;26.80;13.10;;;;;;;1.61;100.00;97811.03;5016748;28;20107;-83
2023/01/26 09:10:31;;;;;;;31.65;11.98;;;;;;;1.71;100.00;97822.25;5034398;28;20382;-83
2023/01/26 09:12:57;;;;;;;18.27;8.95;;;;;;;1.48;100.00;97799.03;5016495;28;20040;-83
2023/01/26 09:15:23;;;;;;;30.90;12.93;;;;;;;1.47;100.00;97824.53;5016449;28;20057;-83
2023/01/26 09:17:49;;;;;;;28.75;12.75;;;;;;;1.42;100.00;97809.72;5016312;28;20021;-84
2023/01/26 09:20:15;;;;;;;36.97;15.73;;;;;;;1.62;100.00;97818.94;4999829;28;20025;-81
2023/01/26 09:22:41;;;;;;;27.80;11.65;;;;;;;1.69;100.00;97819.66;5016622;28;20037;-82
2023/01/26 09:25:08;;;;;;;30.13;11.57;;;;;;;1.62;100.00;97818.06;4998258;28;20164;-82
2023/01/26 09:27:34;;;;;;;23.95;11.38;;;;;;;1.64;100.00;97789.88;5013033;28;20018;-83
2023/01/26 09:29:59;;;;;;;26.73;12.80;;;;;;;1.74;100.00;97799.34;5013512;28;20029;-82
2023/01/26 09:32:25;;;;;;;31.02;14.68;;;;;;;1.62;100.00;97774.13;4998897;28;20028;-82
2023/01/26 09:34:50;;;;;;;22.23;9.07;;;;;;;1.69;100.00;97779.25;5033680;28;20052;-82
2023/01/26 09:37:16;;;;;;;25.40;11.05;;;;;;;1.87;100.00;97794.63;4999186;28;20018;-83
2023/01/26 09:39:42;;;;;;;29.45;12.93;;;;;;;1.81;100.00;97776.31;5012710;28;20577;-82
2023/01/26 09:42:30;;;;;;;22.85;10.95;;;;;;;1.74;100.00;97769.47;5015890;28;20037;-83
2023/01/26 09:45:10;;;;;;;19.80;10.25;;;;;;;1.65;100.00;97765.28;5015874;28;20056;-83
2023/01/26 09:47:54;;;;;;;20.77;9.75;;;;;;;1.61;100.00;97753.94;5033902;28;20071;-83
2023/01/26 09:51:09;;;;;;;24.45;10.15;;;;;;;1.62;100.00;97739.00;5015247;28;20045;-84
2023/01/26 09:53:52;;;;;;;85.03;37.03;;;;;;;1.80;100.00;97757.00;5024909;28;20489;-84
2023/01/26 09:56:19;;;;;;;20.67;10.73;;;;;;;1.86;100.00;97740.16;4999179;28;20120;-86
2023/01/26 09:58:55;;;;;;;74.18;32.38;;;;;;;1.58;100.00;97727.66;4998185;28;20045;-84
2023/01/26 10:01:28;;;;;;;20.25;9.85;;;;;;;1.66;100.00;97737.16;5015506;28;20029;-82
2023/01/26 10:04:04;;;;;;;21.38;10.57;;;;;;;1.63;100.00;97736.28;5015758;28;20033;-84
2023/01/26 10:06:31;;;;;;;22.67;10.57;;;;;;;1.28;100.00;97709.03;5011428;28;20169;-84
2023/01/26 10:09:00;;;;;;;28.65;12.20;;;;;;;1.35;100.00;97729.97;5015808;28;20472;-81
2023/01/26 10:11:46;;;;;;;30.48;12.88;;;;;;;1.46;100.00;97727.94;5032942;28;20028;-82
2023/01/26 10:14:29;;;;;;;46.00;20.35;;;;;;;1.59;100.00;97745.19;5012611;28;20022;-81
2023/01/26 10:16:56;;;;;;;24.80;10.45;;;;;;;1.71;100.00;97743.16;5032844;28;20041;-84
2023/01/26 10:19:30;;;;;;;46.75;19.60;;;;;;;1.81;100.00;97735.00;4998703;28;20397;-89
2023/01/26 10:21:59;;;;;;;27.50;12.40;;;;;;;1.82;100.00;97725.31;4995003;28;20076;-84
2023/01/26 10:24:25;;;;;;;81.40;35.28;;;;;;;1.84;100.00;97710.34;4998929;28;20033;-85
2023/01/26 10:26:56;;;;;;;33.65;14.05;;;;;;;2.01;100.00;97726.59;5013734;28;20030;-84
2023/01/26 10:29:22;;;;;;;28.58;11.75;;;;;;;1.84;100.00;97697.16;5013394;28;20485;-83
2023/01/26 10:31:47;;;;;;;24.90;12.52;;;;;;;1.89;100.00;97703.16;5013528;28;20029;-83
2023/01/26 10:34:24;;;;;;;32.67;14.77;;;;;;;1.98;100.00;97701.16;5008674;28;20028;-83
2023/01/26 10:36:57;;;;;;;21.95;10.00;;;;;;;2.00;100.00;97695.84;4994859;28;20045;-82
2023/01/26 10:39:22;;;;;;;;;;;;;;;2.02;100.00;97686.13;5012190;28;20032;-82
2023/01/26 10:42:01;;;;;;;21.40;9.10;;;;;;;1.98;100.00;97668.63;5010754;28;20281;-83
2023/01/26 10:44:36;;;;;;;23.92;8.57;;;;;;;1.82;100.00;97668.16;5011959;28;20477;-82
2023/01/26 10:47:12;;;;;;;24.05;11.48;;;;;;;1.78;100.00;97657.75;5011039;28;20025;-83
2023/01/26 10:49:38;;;;;;;24.88;11.40;;;;;;;1.98;100.00;97672.16;5011337;28;20025;-82
2023/01/26 10:52:21;;;;;;;23.33;10.77;;;;;;;2.04;100.00;97657.94;4995304;28;20029;-83
2023/01/26 10:55:19;;;;;;;21.98;10.20;;;;;;;2.53;100.00;97673.28;4990467;28;20409;-84
2023/01/26 10:57:45;;;;;;;23.60;11.45;;;;;;;2.53;100.00;97647.75;4990397;28;20044;-83
2023/01/26 11:00:24;;;;;;;29.83;13.05;;;;;;;2.64;100.00;97631.63;4992125;28;20413;-83
2023/01/26 11:03:17;;;;;;;15.65;7.72;;;;;;;2.45;100.00;97618.09;5000053;28;20037;-83
2023/01/26 11:05:45;;;;;;;15.30;7.40;;;;;;;2.54;100.00;97593.19;5000898;28;20041;-83
2023/01/26 11:08:33;;;;;;;20.80;9.63;;;;;;;2.60;100.00;97595.63;5003902;28;20512;-83
2023/01/26 11:10:59;;;;;;;22.30;9.82;;;;;;;2.55;100.00;97579.91;4994211;28;20036;-84
2023/01/26 11:13:25;;;;;;;28.90;13.18;;;;;;;2.73;100.00;97582.03;4999053;28;20116;-83
2023/01/26 11:16:11;;;;;;;19.77;10.20;;;;;;;2.83;100.00;97576.47;4995072;28;20025;-83
2023/01/26 11:18:59;;;;;;;27.55;14.57;;;;;;;3.15;100.00;97578.94;4980681;28;20034;-83
2023/01/26 11:21:30;;;;;;;17.35;8.77;;;;;;;3.18;100.00;97563.88;4980342;28;20042;-83
2023/01/26 11:24:03;;;;;;;20.73;10.97;;;;;;;3.12;100.00;97552.63;5021495;28;20095;-83
2023/01/26 11:26:47;;;;;;;21.52;10.10;;;;;;;3.19;100.00;97554.16;4999502;28;20539;-83
2023/01/26 11:29:34;;;;;;;16.90;8.40;;;;;;;3.40;100.00;97542.88;5021240;28;20092;-83
2023/01/26 11:32:20;;;;;;;19.77;7.65;;;;;;;3.51;100.00;97527.50;4991584;28;20030;-84
2023/01/26 11:35:13;;;;;;;16.08;8.30;;;;;;;3.43;100.00;97518.09;4989899;28;20403;-84
2023/01/26 11:37:42;;;;;;;15.23;7.10;;;;;;;3.38;100.00;97507.72;5002600;28;20041;-84
2023/01/26 11:40:36;;;;;;;14.63;7.85;;;;;;;3.19;100.00;97494.25;4997537;28;20468;-84
2023/01/26 11:43:36;;;;;;;18.10;8.75;;;;;;;2.85;100.00;97493.63;5007445;28;20029;-84
2023/01/26 11:46:46;;;;;;;15.43;8.13;;;;;;;2.94;100.00;97506.53;4997564;28;20083;-83
2023/01/26 11:49:36;;;;;;;16.00;7.75;;;;;;;2.97;100.00;97503.78;4912997;29;20032;-83
2023/01/26 11:52:27;;;;;;;20.92;7.40;;;;;;;2.85;100.00;97495.41;4929029;29;20031;-83
2023/01/26 11:55:17;;;;;;;16.27;6.68;;;;;;;2.80;100.00;97486.78;4979917;28;20103;-84
2023/01/26 11:58:09;;;;;;;15.65;6.55;;;;;;;2.53;100.00;97480.56;5004266;28;20088;-83
2023/01/26 12:01:13;;;;;;;15.73;7.47;;;;;;;2.61;100.00;97476.81;5006792;28;20231;-83
2023/01/26 12:03:42;;;;;;;12.55;6.38;;;;;;;2.59;100.00;97477.75;4968286;28;20173;-83
2023/01/26 12:06:18;;;;;;;11.77;5.88;;;;;;;2.46;100.00;97466.69;5004261;28;20025;-83
2023/01/26 12:08:59;;;;;;;11.35;6.63;;;;;;;2.33;100.00;97464.50;4987550;28;20022;-84
2023/01/26 12:11:34;;;;;;;11.05;5.82;;;;;;;2.26;100.00;97463.84;5008526;28;20037;-84
2023/01/26 12:14:17;;;;;;;19.10;7.50;;;;;;;2.23;100.00;97463.06;4989787;28;20112;-83
2023/01/26 12:16:57;;;;;;;23.98;11.65;;;;;;;2.29;100.00;97484.84;4995677;28;20033;-84
2023/01/26 12:19:35;;;;;;;17.90;8.35;;;;;;;2.16;100.00;97478.19;4994359;28;20029;-84
2023/01/26 12:22:17;;;;;;;14.30;7.15;;;;;;;2.07;100.00;97475.84;4977189;28;20402;-84